Jack Guidry — WDF2422 — position and weather

sailwx.info

Track history (hours):
 
Tides and Currents Weather Stations Pressure Air Temp Water Temp Dewpoint Dewpoint Depression Visibility Wind Speed Wind Dir Waves Ship Positions

Jack Guidry

Owner: Enterprise Marine Services, LLC, San Antonio, TX. More information available from US FCC via Universal Licensing System and Coast Guard Vessel Documentation Center.

Last reported at 2017-Mar-24 07:24 UTC. Time now 2017-Mar-26 23:03 UTC.
Position N 30°04' W 093°33'.

Length 22 m; draft 3 m.

Type: Other ship. MMSI: 367003430.

Date/timePositionNaut miles runAvg speedWind from/ knotsBaromVisibWave heightAir tempDewpointWater temp
2017-Mar-24 07:24N 30°04' W 093°33'3 3.8
2017-Mar-24 06:33N 30°04' W 093°30'4 3.9
2017-Mar-24 05:33N 30°04' W 093°25'4 3.7
2017-Mar-24 04:33N 30°04' W 093°21'3 3.0
2017-Mar-24 03:32N 30°06' W 093°18'0 0.0
2017-Mar-24 02:32N 30°06' W 093°18'0 0.0
2017-Mar-24 01:32N 30°06' W 093°18'0 0.0
2017-Mar-24 00:32N 30°06' W 093°18'2 2.2
2017-Mar-23 23:33N 30°08' W 093°20'0 0.1
2017-Mar-23 22:31N 30°08' W 093°20'0 0.4
2017-Mar-23 21:31N 30°08' W 093°19'0 0.0
2017-Mar-23 20:31N 30°08' W 093°19'0 0.0
2017-Mar-23 19:31N 30°08' W 093°19'0 0.0
2017-Mar-23 18:31N 30°08' W 093°19'0 0.0
2017-Mar-23 17:28N 30°08' W 093°19'0 0.0
2017-Mar-23 16:33N 30°08' W 093°19'0 0.0
2017-Mar-23 15:33N 30°08' W 093°19'0 0.0
2017-Mar-23 14:33N 30°08' W 093°19'0 0.0
2017-Mar-23 13:33N 30°08' W 093°19'0 0.0
2017-Mar-23 12:33N 30°08' W 093°19'0 0.0
2017-Mar-23 11:33N 30°08' W 093°19'0 0.0
2017-Mar-23 10:33N 30°08' W 093°19'0 0.0
2017-Mar-23 09:33N 30°08' W 093°19'0 0.0
2017-Mar-23 08:33N 30°08' W 093°19'0 0.0
2017-Mar-23 07:33N 30°08' W 093°19'0 0.0
2017-Mar-23 06:33N 30°08' W 093°19'0 0.0
2017-Mar-23 05:33N 30°08' W 093°19'0 0.0
2017-Mar-23 04:33N 30°08' W 093°19'0 0.0
2017-Mar-23 03:33N 30°08' W 093°19'0 0.0
2017-Mar-23 02:33N 30°08' W 093°19'3 2.6
2017-Mar-23 01:33N 30°06' W 093°20'3 3.3
2017-Mar-23 00:33N 30°04' W 093°23'3 2.9
2017-Mar-22 23:33N 30°04' W 093°26'83 3.7
2017-Mar-22 01:11N 29°35' W 094°56'4 6.7
2017-Mar-22 00:33N 29°39' W 094°58'6 0.3
2017-Mar-21 02:11N 29°44' W 095°03'2 2.4
2017-Mar-21 01:25N 29°43' W 095°01'4 4.2
2017-Mar-21 00:33N 29°40' W 094°59'5 5.2
2017-Mar-20 23:33N 29°36' W 094°56'4 4.3
2017-Mar-20 22:33N 29°32' W 094°54'77 3.6
2017-Mar-20 01:18N 30°04' W 093°33'3 4.1
2017-Mar-20 00:33N 30°04' W 093°29'3 3.2
2017-Mar-19 23:33N 30°04' W 093°26'4 3.8
2017-Mar-19 22:33N 30°04' W 093°21'3 3.4
2017-Mar-19 21:33N 30°07' W 093°20'1 1.4
2017-Mar-19 20:33N 30°08' W 093°19'0 0.2
2017-Mar-19 19:33N 30°08' W 093°19'0 0.1
2017-Mar-19 18:33N 30°08' W 093°19'0 0.0
2017-Mar-19 17:33N 30°08' W 093°19'0 0.0
2017-Mar-19 16:33N 30°08' W 093°19'0 0.0
2017-Mar-19 15:33N 30°08' W 093°19'0 0.0
2017-Mar-19 14:33N 30°08' W 093°19'0 0.0
2017-Mar-19 13:33N 30°08' W 093°19'0 0.0
2017-Mar-19 12:33N 30°08' W 093°19'0 0.0
2017-Mar-19 11:33N 30°08' W 093°19'0 0.0
2017-Mar-19 10:33N 30°08' W 093°19'0 0.0
2017-Mar-19 09:33N 30°08' W 093°19'0 0.0
2017-Mar-19 08:33N 30°08' W 093°19'0 0.0
2017-Mar-19 07:33N 30°08' W 093°19'0 0.0
2017-Mar-19 06:33N 30°08' W 093°19'0 0.0
2017-Mar-19 05:33N 30°08' W 093°19'0 0.0
2017-Mar-19 04:33N 30°08' W 093°19'0 0.0
2017-Mar-19 03:33N 30°08' W 093°19'0 0.0
2017-Mar-19 02:33N 30°08' W 093°19'0 0.1
2017-Mar-19 01:33N 30°08' W 093°19'4 3.8
2017-Mar-19 00:33N 30°05' W 093°20'3 2.7
2017-Mar-18 23:33N 30°04' W 093°23'5 4.6
2017-Mar-18 22:32N 30°04' W 093°29'81 3.6
2017-Mar-18 00:22N 29°34' W 094°55'8 7.7
2017-Mar-17 23:21N 29°41' W 094°59'4 5.4
2017-Mar-17 22:33N 29°44' W 095°02'1 0.0
2017-Mar-16 11:21N 29°44' W 095°04'4 5.5
2017-Mar-16 10:33N 29°42' W 094°60'6 6.0
2017-Mar-16 09:33N 29°36' W 094°57'78 3.8
2017-Mar-15 13:17N 30°04' W 093°33'2 2.9
2017-Mar-15 12:33N 30°04' W 093°30'4 4.3
2017-Mar-15 11:33N 30°04' W 093°25'4 3.9
2017-Mar-15 10:33N 30°04' W 093°21'3 2.6
2017-Mar-15 09:33N 30°06' W 093°20'2 1.8
2017-Mar-15 08:33N 30°08' W 093°19'0 0.0
2017-Mar-15 07:33N 30°08' W 093°19'0 0.0
2017-Mar-15 06:33N 30°08' W 093°19'0 0.0
2017-Mar-15 05:33N 30°08' W 093°19'0 0.0
2017-Mar-15 04:33N 30°08' W 093°19'0 0.0
2017-Mar-15 03:33N 30°08' W 093°19'0 0.0
2017-Mar-15 02:33N 30°08' W 093°19'0 0.0
2017-Mar-15 01:33N 30°08' W 093°19'0 0.0
2017-Mar-15 00:33N 30°08' W 093°19'0 0.0
2017-Mar-14 23:33N 30°08' W 093°19'0 0.0
2017-Mar-14 22:33N 30°08' W 093°19'0 0.0
2017-Mar-14 21:33N 30°08' W 093°19'0 0.0
2017-Mar-14 20:33N 30°08' W 093°19'0 0.0
2017-Mar-14 19:33N 30°08' W 093°19'0 0.0
2017-Mar-14 18:33N 30°08' W 093°19'0 0.0
2017-Mar-14 17:33N 30°08' W 093°19'0 0.0
2017-Mar-14 16:33N 30°08' W 093°19'0 0.0
2017-Mar-14 15:33N 30°08' W 093°19'1 0.5
2017-Mar-14 14:33N 30°08' W 093°20'0 0.0
2017-Mar-14 13:33N 30°08' W 093°20'0 0.4
2017-Mar-14 12:33N 30°08' W 093°20'2 2.0
2017-Mar-14 11:33N 30°06' W 093°19'0 0.0
2017-Mar-14 10:33N 30°06' W 093°19'0 0.0
2017-Mar-14 09:33N 30°06' W 093°19'0 0.0
2017-Mar-14 08:33N 30°06' W 093°19'0 0.0
2017-Mar-14 07:33N 30°06' W 093°19'  
Track history (hours):
 
Tides and Currents Weather Stations Pressure Air Temp Water Temp Dewpoint Dewpoint Depression Visibility Wind Speed Wind Dir Waves Ship Positions

Jack Guidry

Owner: Enterprise Marine Services, LLC, San Antonio, TX. More information available from US FCC via Universal Licensing System and Coast Guard Vessel Documentation Center.

Last reported at 2017-Mar-24 07:24 UTC. Time now 2017-Mar-26 23:03 UTC.
Position N 30°04' W 093°33'.

Length 22 m; draft 3 m.

Type: Other ship. MMSI: 367003430.

Date/timePositionNaut miles runAvg speedWind from/ knotsBaromVisibWave heightAir tempDewpointWater temp
2017-Mar-24 07:24N 30°04' W 093°33'3 3.8
2017-Mar-24 06:33N 30°04' W 093°30'4 3.9
2017-Mar-24 05:33N 30°04' W 093°25'4 3.7
2017-Mar-24 04:33N 30°04' W 093°21'3 3.0
2017-Mar-24 03:32N 30°06' W 093°18'0 0.0
2017-Mar-24 02:32N 30°06' W 093°18'0 0.0
2017-Mar-24 01:32N 30°06' W 093°18'0 0.0
2017-Mar-24 00:32N 30°06' W 093°18'2 2.2
2017-Mar-23 23:33N 30°08' W 093°20'0 0.1
2017-Mar-23 22:31N 30°08' W 093°20'0 0.4
2017-Mar-23 21:31N 30°08' W 093°19'0 0.0
2017-Mar-23 20:31N 30°08' W 093°19'0 0.0
2017-Mar-23 19:31N 30°08' W 093°19'0 0.0
2017-Mar-23 18:31N 30°08' W 093°19'0 0.0
2017-Mar-23 17:28N 30°08' W 093°19'0 0.0
2017-Mar-23 16:33N 30°08' W 093°19'0 0.0
2017-Mar-23 15:33N 30°08' W 093°19'0 0.0
2017-Mar-23 14:33N 30°08' W 093°19'0 0.0
2017-Mar-23 13:33N 30°08' W 093°19'0 0.0
2017-Mar-23 12:33N 30°08' W 093°19'0 0.0
2017-Mar-23 11:33N 30°08' W 093°19'0 0.0
2017-Mar-23 10:33N 30°08' W 093°19'0 0.0
2017-Mar-23 09:33N 30°08' W 093°19'0 0.0
2017-Mar-23 08:33N 30°08' W 093°19'0 0.0
2017-Mar-23 07:33N 30°08' W 093°19'0 0.0
2017-Mar-23 06:33N 30°08' W 093°19'0 0.0
2017-Mar-23 05:33N 30°08' W 093°19'0 0.0
2017-Mar-23 04:33N 30°08' W 093°19'0 0.0
2017-Mar-23 03:33N 30°08' W 093°19'0 0.0
2017-Mar-23 02:33N 30°08' W 093°19'3 2.6
2017-Mar-23 01:33N 30°06' W 093°20'3 3.3
2017-Mar-23 00:33N 30°04' W 093°23'3 2.9
2017-Mar-22 23:33N 30°04' W 093°26'83 3.7
2017-Mar-22 01:11N 29°35' W 094°56'4 6.7
2017-Mar-22 00:33N 29°39' W 094°58'6 0.3
2017-Mar-21 02:11N 29°44' W 095°03'2 2.4
2017-Mar-21 01:25N 29°43' W 095°01'4 4.2
2017-Mar-21 00:33N 29°40' W 094°59'5 5.2
2017-Mar-20 23:33N 29°36' W 094°56'4 4.3
2017-Mar-20 22:33N 29°32' W 094°54'77 3.6
2017-Mar-20 01:18N 30°04' W 093°33'3 4.1
2017-Mar-20 00:33N 30°04' W 093°29'3 3.2
2017-Mar-19 23:33N 30°04' W 093°26'4 3.8
2017-Mar-19 22:33N 30°04' W 093°21'3 3.4
2017-Mar-19 21:33N 30°07' W 093°20'1 1.4
2017-Mar-19 20:33N 30°08' W 093°19'0 0.2
2017-Mar-19 19:33N 30°08' W 093°19'0 0.1
2017-Mar-19 18:33N 30°08' W 093°19'0 0.0
2017-Mar-19 17:33N 30°08' W 093°19'0 0.0
2017-Mar-19 16:33N 30°08' W 093°19'0 0.0
2017-Mar-19 15:33N 30°08' W 093°19'0 0.0
2017-Mar-19 14:33N 30°08' W 093°19'0 0.0
2017-Mar-19 13:33N 30°08' W 093°19'0 0.0
2017-Mar-19 12:33N 30°08' W 093°19'0 0.0
2017-Mar-19 11:33N 30°08' W 093°19'0 0.0
2017-Mar-19 10:33N 30°08' W 093°19'0 0.0
2017-Mar-19 09:33N 30°08' W 093°19'0 0.0
2017-Mar-19 08:33N 30°08' W 093°19'0 0.0
2017-Mar-19 07:33N 30°08' W 093°19'0 0.0
2017-Mar-19 06:33N 30°08' W 093°19'0 0.0
2017-Mar-19 05:33N 30°08' W 093°19'0 0.0
2017-Mar-19 04:33N 30°08' W 093°19'0 0.0
2017-Mar-19 03:33N 30°08' W 093°19'0 0.0
2017-Mar-19 02:33N 30°08' W 093°19'0 0.1
2017-Mar-19 01:33N 30°08' W 093°19'4 3.8
2017-Mar-19 00:33N 30°05' W 093°20'3 2.7
2017-Mar-18 23:33N 30°04' W 093°23'5 4.6
2017-Mar-18 22:32N 30°04' W 093°29'81 3.6
2017-Mar-18 00:22N 29°34' W 094°55'8 7.7
2017-Mar-17 23:21N 29°41' W 094°59'4 5.4
2017-Mar-17 22:33N 29°44' W 095°02'1 0.0
2017-Mar-16 11:21N 29°44' W 095°04'4 5.5
2017-Mar-16 10:33N 29°42' W 094°60'6 6.0
2017-Mar-16 09:33N 29°36' W 094°57'78 3.8
2017-Mar-15 13:17N 30°04' W 093°33'2 2.9
2017-Mar-15 12:33N 30°04' W 093°30'4 4.3
2017-Mar-15 11:33N 30°04' W 093°25'4 3.9
2017-Mar-15 10:33N 30°04' W 093°21'3 2.6
2017-Mar-15 09:33N 30°06' W 093°20'2 1.8
2017-Mar-15 08:33N 30°08' W 093°19'0 0.0
2017-Mar-15 07:33N 30°08' W 093°19'0 0.0
2017-Mar-15 06:33N 30°08' W 093°19'0 0.0
2017-Mar-15 05:33N 30°08' W 093°19'0 0.0
2017-Mar-15 04:33N 30°08' W 093°19'0 0.0
2017-Mar-15 03:33N 30°08' W 093°19'0 0.0
2017-Mar-15 02:33N 30°08' W 093°19'0 0.0
2017-Mar-15 01:33N 30°08' W 093°19'0 0.0
2017-Mar-15 00:33N 30°08' W 093°19'0 0.0
2017-Mar-14 23:33N 30°08' W 093°19'0 0.0
2017-Mar-14 22:33N 30°08' W 093°19'0 0.0
2017-Mar-14 21:33N 30°08' W 093°19'0 0.0
2017-Mar-14 20:33N 30°08' W 093°19'0 0.0
2017-Mar-14 19:33N 30°08' W 093°19'0 0.0
2017-Mar-14 18:33N 30°08' W 093°19'0 0.0
2017-Mar-14 17:33N 30°08' W 093°19'0 0.0
2017-Mar-14 16:33N 30°08' W 093°19'0 0.0
2017-Mar-14 15:33N 30°08' W 093°19'1 0.5
2017-Mar-14 14:33N 30°08' W 093°20'0 0.0
2017-Mar-14 13:33N 30°08' W 093°20'0 0.4
2017-Mar-14 12:33N 30°08' W 093°20'2 2.0
2017-Mar-14 11:33N 30°06' W 093°19'0 0.0
2017-Mar-14 10:33N 30°06' W 093°19'0 0.0
2017-Mar-14 09:33N 30°06' W 093°19'0 0.0
2017-Mar-14 08:33N 30°06' W 093°19'0 0.0
2017-Mar-14 07:33N 30°06' W 093°19'  

Dump ship's entire track history